sensor_id;sensor_type;location;lat;lon;timestamp;P1;durP1;ratioP1;P2;durP2;ratioP2
65567;SDS011;52211;50.154;8.682;2023-12-29T00:02:13;2.43;;;1.90;;
65567;SDS011;52211;50.154;8.682;2023-12-29T00:04:42;1.90;;;1.67;;
65567;SDS011;52211;50.154;8.682;2023-12-29T00:07:12;3.27;;;2.00;;
65567;SDS011;52211;50.154;8.682;2023-12-29T00:09:39;2.00;;;1.60;;
65567;SDS011;52211;50.154;8.682;2023-12-29T00:12:08;2.70;;;2.07;;
65567;SDS011;52211;50.154;8.682;2023-12-29T00:14:39;2.30;;;2.10;;
65567;SDS011;52211;50.154;8.682;2023-12-29T00:17:11;1.93;;;1.83;;
65567;SDS011;52211;50.154;8.682;2023-12-29T00:19:38;1.80;;;1.70;;
65567;SDS011;52211;50.154;8.682;2023-12-29T00:22:08;1.97;;;1.87;;
65567;SDS011;52211;50.154;8.682;2023-12-29T00:24:37;1.80;;;1.70;;
65567;SDS011;52211;50.154;8.682;2023-12-29T00:27:05;3.17;;;2.00;;
65567;SDS011;52211;50.154;8.682;2023-12-29T00:29:35;2.50;;;2.30;;
65567;SDS011;52211;50.154;8.682;2023-12-29T00:32:06;2.10;;;1.90;;
65567;SDS011;52211;50.154;8.682;2023-12-29T00:34:40;1.87;;;1.70;;
65567;SDS011;52211;50.154;8.682;2023-12-29T00:37:09;2.33;;;1.70;;
65567;SDS011;52211;50.154;8.682;2023-12-29T00:39:38;1.80;;;1.70;;
65567;SDS011;52211;50.154;8.682;2023-12-29T00:42:06;2.00;;;1.80;;
65567;SDS011;52211;50.154;8.682;2023-12-29T00:44:39;2.67;;;2.10;;
65567;SDS011;52211;50.154;8.682;2023-12-29T00:47:11;2.00;;;1.90;;
65567;SDS011;52211;50.154;8.682;2023-12-29T00:49:39;4.50;;;1.80;;
65567;SDS011;52211;50.154;8.682;2023-12-29T00:52:08;1.80;;;1.70;;
65567;SDS011;52211;50.154;8.682;2023-12-29T00:54:35;1.60;;;1.50;;
65567;SDS011;52211;50.154;8.682;2023-12-29T00:57:04;2.40;;;1.60;;
65567;SDS011;52211;50.154;8.682;2023-12-29T00:59:36;1.70;;;1.60;;
65567;SDS011;52211;50.154;8.682;2023-12-29T01:02:07;2.03;;;1.80;;
65567;SDS011;52211;50.154;8.682;2023-12-29T01:04:42;1.40;;;1.30;;
65567;SDS011;52211;50.154;8.682;2023-12-29T01:07:11;1.53;;;1.43;;
65567;SDS011;52211;50.154;8.682;2023-12-29T01:09:41;2.20;;;1.70;;
65567;SDS011;52211;50.154;8.682;2023-12-29T01:12:10;2.50;;;2.07;;
65567;SDS011;52211;50.154;8.682;2023-12-29T01:14:39;1.63;;;1.53;;
65567;SDS011;52211;50.154;8.682;2023-12-29T01:17:11;2.43;;;1.93;;
65567;SDS011;52211;50.154;8.682;2023-12-29T01:19:41;1.53;;;1.43;;
65567;SDS011;52211;50.154;8.682;2023-12-29T01:22:15;2.00;;;1.90;;
65567;SDS011;52211;50.154;8.682;2023-12-29T01:24:42;2.83;;;1.73;;
65567;SDS011;52211;50.154;8.682;2023-12-29T01:27:11;2.83;;;1.50;;
65567;SDS011;52211;50.154;8.682;2023-12-29T01:29:40;2.60;;;1.90;;
65567;SDS011;52211;50.154;8.682;2023-12-29T01:32:07;2.10;;;1.87;;
65567;SDS011;52211;50.154;8.682;2023-12-29T01:34:36;2.30;;;2.10;;
65567;SDS011;52211;50.154;8.682;2023-12-29T01:37:06;2.97;;;2.07;;
65567;SDS011;52211;50.154;8.682;2023-12-29T01:39:33;3.30;;;1.70;;
65567;SDS011;52211;50.154;8.682;2023-12-29T01:42:03;2.03;;;1.70;;
65567;SDS011;52211;50.154;8.682;2023-12-29T01:44:33;1.90;;;1.80;;
65567;SDS011;52211;50.154;8.682;2023-12-29T01:47:04;1.57;;;1.47;;
65567;SDS011;52211;50.154;8.682;2023-12-29T01:49:45;2.67;;;1.80;;
65567;SDS011;52211;50.154;8.682;2023-12-29T01:52:14;2.70;;;2.13;;
65567;SDS011;52211;50.154;8.682;2023-12-29T01:54:44;2.57;;;1.93;;
65567;SDS011;52211;50.154;8.682;2023-12-29T01:57:14;2.67;;;1.77;;
65567;SDS011;52211;50.154;8.682;2023-12-29T01:59:43;2.17;;;1.97;;
65567;SDS011;52211;50.154;8.682;2023-12-29T02:02:13;1.83;;;1.73;;
65567;SDS011;52211;50.154;8.682;2023-12-29T02:04:46;1.50;;;1.40;;
65567;SDS011;52211;50.154;8.682;2023-12-29T02:07:14;2.17;;;1.97;;
65567;SDS011;52211;50.154;8.682;2023-12-29T02:09:41;1.70;;;1.60;;
65567;SDS011;52211;50.154;8.682;2023-12-29T02:12:09;1.80;;;1.70;;
65567;SDS011;52211;50.154;8.682;2023-12-29T02:14:38;1.40;;;1.30;;
65567;SDS011;52211;50.154;8.682;2023-12-29T02:17:10;2.07;;;1.70;;
65567;SDS011;52211;50.154;8.682;2023-12-29T02:19:58;1.80;;;1.70;;
65567;SDS011;52211;50.154;8.682;2023-12-29T02:22:29;1.50;;;1.40;;
65567;SDS011;52211;50.154;8.682;2023-12-29T02:24:55;1.67;;;1.50;;
65567;SDS011;52211;50.154;8.682;2023-12-29T02:27:35;2.67;;;1.50;;
65567;SDS011;52211;50.154;8.682;2023-12-29T02:33:07;1.70;;;1.60;;
65567;SDS011;52211;50.154;8.682;2023-12-29T02:35:43;1.60;;;1.50;;
65567;SDS011;52211;50.154;8.682;2023-12-29T02:38:12;1.70;;;1.60;;
65567;SDS011;52211;50.154;8.682;2023-12-29T02:40:40;1.73;;;1.63;;
65567;SDS011;52211;50.154;8.682;2023-12-29T02:43:14;1.30;;;1.20;;
65567;SDS011;52211;50.154;8.682;2023-12-29T02:45:41;3.03;;;1.50;;
65567;SDS011;52211;50.154;8.682;2023-12-29T02:48:12;2.20;;;1.80;;
65567;SDS011;52211;50.154;8.682;2023-12-29T02:50:39;2.10;;;1.60;;
65567;SDS011;52211;50.154;8.682;2023-12-29T02:53:07;1.57;;;1.33;;
65567;SDS011;52211;50.154;8.682;2023-12-29T02:55:35;1.60;;;1.50;;
65567;SDS011;52211;50.154;8.682;2023-12-29T02:58:04;1.90;;;1.57;;
65567;SDS011;52211;50.154;8.682;2023-12-29T03:00:38;2.03;;;1.53;;
65567;SDS011;52211;50.154;8.682;2023-12-29T03:03:05;1.50;;;1.40;;
65567;SDS011;52211;50.154;8.682;2023-12-29T03:05:37;1.47;;;1.37;;
65567;SDS011;52211;50.154;8.682;2023-12-29T03:08:04;3.70;;;1.90;;
65567;SDS011;52211;50.154;8.682;2023-12-29T03:10:33;2.83;;;1.63;;
65567;SDS011;52211;50.154;8.682;2023-12-29T03:13:00;2.47;;;1.50;;
65567;SDS011;52211;50.154;8.682;2023-12-29T03:15:31;2.67;;;1.70;;
65567;SDS011;52211;50.154;8.682;2023-12-29T03:18:00;1.93;;;1.83;;
65567;SDS011;52211;50.154;8.682;2023-12-29T03:20:30;1.60;;;1.43;;
65567;SDS011;52211;50.154;8.682;2023-12-29T03:22:57;1.73;;;1.63;;
65567;SDS011;52211;50.154;8.682;2023-12-29T03:25:26;2.00;;;1.70;;
65567;SDS011;52211;50.154;8.682;2023-12-29T03:27:53;1.70;;;1.47;;
65567;SDS011;52211;50.154;8.682;2023-12-29T03:30:22;2.67;;;1.80;;
65567;SDS011;52211;50.154;8.682;2023-12-29T03:32:49;1.90;;;1.67;;
65567;SDS011;52211;50.154;8.682;2023-12-29T03:35:16;2.83;;;1.63;;
65567;SDS011;52211;50.154;8.682;2023-12-29T03:37:46;1.60;;;1.50;;
65567;SDS011;52211;50.154;8.682;2023-12-29T03:40:15;3.67;;;1.80;;
65567;SDS011;52211;50.154;8.682;2023-12-29T03:42:45;2.00;;;1.50;;
65567;SDS011;52211;50.154;8.682;2023-12-29T03:45:14;1.60;;;1.50;;
65567;SDS011;52211;50.154;8.682;2023-12-29T03:47:48;2.23;;;1.80;;
65567;SDS011;52211;50.154;8.682;2023-12-29T03:50:18;1.40;;;1.30;;
65567;SDS011;52211;50.154;8.682;2023-12-29T03:52:48;1.70;;;1.60;;
65567;SDS011;52211;50.154;8.682;2023-12-29T03:55:15;2.03;;;1.60;;
65567;SDS011;52211;50.154;8.682;2023-12-29T03:57:42;2.93;;;1.67;;
65567;SDS011;52211;50.154;8.682;2023-12-29T04:00:13;1.57;;;1.47;;
65567;SDS011;52211;50.154;8.682;2023-12-29T04:02:43;2.23;;;1.70;;
65567;SDS011;52211;50.154;8.682;2023-12-29T04:05:10;1.73;;;1.63;;
65567;SDS011;52211;50.154;8.682;2023-12-29T04:07:41;3.93;;;2.17;;
65567;SDS011;52211;50.154;8.682;2023-12-29T04:10:08;1.83;;;1.50;;
65567;SDS011;52211;50.154;8.682;2023-12-29T04:12:37;3.97;;;1.53;;
65567;SDS011;52211;50.154;8.682;2023-12-29T04:15:05;2.10;;;1.73;;
65567;SDS011;52211;50.154;8.682;2023-12-29T04:17:35;1.73;;;1.63;;
65567;SDS011;52211;50.154;8.682;2023-12-29T04:20:04;6.07;;;2.50;;
65567;SDS011;52211;50.154;8.682;2023-12-29T04:22:34;3.17;;;1.73;;
65567;SDS011;52211;50.154;8.682;2023-12-29T04:25:04;1.83;;;1.73;;
65567;SDS011;52211;50.154;8.682;2023-12-29T04:27:31;1.93;;;1.40;;
65567;SDS011;52211;50.154;8.682;2023-12-29T04:30:01;1.20;;;1.10;;
65567;SDS011;52211;50.154;8.682;2023-12-29T04:32:31;1.73;;;1.60;;
65567;SDS011;52211;50.154;8.682;2023-12-29T04:34:58;1.47;;;1.37;;
65567;SDS011;52211;50.154;8.682;2023-12-29T04:37:30;1.93;;;1.57;;
65567;SDS011;52211;50.154;8.682;2023-12-29T04:39:59;1.97;;;1.77;;
65567;SDS011;52211;50.154;8.682;2023-12-29T04:42:26;1.40;;;1.23;;
65567;SDS011;52211;50.154;8.682;2023-12-29T04:45:01;2.70;;;1.87;;
65567;SDS011;52211;50.154;8.682;2023-12-29T04:47:28;3.13;;;1.50;;
65567;SDS011;52211;50.154;8.682;2023-12-29T04:49:55;1.97;;;1.37;;
65567;SDS011;52211;50.154;8.682;2023-12-29T04:52:25;1.57;;;1.47;;
65567;SDS011;52211;50.154;8.682;2023-12-29T04:54:54;1.50;;;1.40;;
65567;SDS011;52211;50.154;8.682;2023-12-29T04:57:21;2.27;;;1.60;;
65567;SDS011;52211;50.154;8.682;2023-12-29T04:59:50;1.60;;;1.50;;
65567;SDS011;52211;50.154;8.682;2023-12-29T05:02:19;3.97;;;1.57;;
65567;SDS011;52211;50.154;8.682;2023-12-29T05:04:47;1.93;;;1.40;;
65567;SDS011;52211;50.154;8.682;2023-12-29T05:07:19;2.20;;;1.50;;
65567;SDS011;52211;50.154;8.682;2023-12-29T05:09:46;1.40;;;1.30;;
65567;SDS011;52211;50.154;8.682;2023-12-29T05:12:15;1.60;;;1.50;;
65567;SDS011;52211;50.154;8.682;2023-12-29T05:14:44;1.73;;;1.20;;
65567;SDS011;52211;50.154;8.682;2023-12-29T05:17:16;1.20;;;1.10;;
65567;SDS011;52211;50.154;8.682;2023-12-29T05:19:43;1.50;;;1.30;;
65567;SDS011;52211;50.154;8.682;2023-12-29T05:22:10;2.37;;;1.80;;
65567;SDS011;52211;50.154;8.682;2023-12-29T05:24:44;1.37;;;1.27;;
65567;SDS011;52211;50.154;8.682;2023-12-29T05:27:15;1.80;;;1.40;;
65567;SDS011;52211;50.154;8.682;2023-12-29T05:29:48;1.73;;;1.53;;
65567;SDS011;52211;50.154;8.682;2023-12-29T05:32:15;2.40;;;1.20;;
65567;SDS011;52211;50.154;8.682;2023-12-29T05:34:44;1.57;;;1.43;;
65567;SDS011;52211;50.154;8.682;2023-12-29T05:37:13;1.60;;;1.50;;
65567;SDS011;52211;50.154;8.682;2023-12-29T05:39:50;2.97;;;1.43;;
65567;SDS011;52211;50.154;8.682;2023-12-29T05:42:17;1.60;;;1.50;;
65567;SDS011;52211;50.154;8.682;2023-12-29T05:44:44;2.30;;;1.20;;
65567;SDS011;52211;50.154;8.682;2023-12-29T05:47:17;3.07;;;1.43;;
65567;SDS011;52211;50.154;8.682;2023-12-29T05:49:47;2.30;;;1.50;;
65567;SDS011;52211;50.154;8.682;2023-12-29T05:52:14;3.30;;;1.63;;
65567;SDS011;52211;50.154;8.682;2023-12-29T05:54:41;3.33;;;1.37;;
65567;SDS011;52211;50.154;8.682;2023-12-29T05:57:08;2.10;;;1.70;;
65567;SDS011;52211;50.154;8.682;2023-12-29T05:59:40;2.60;;;1.70;;
65567;SDS011;52211;50.154;8.682;2023-12-29T06:02:07;2.10;;;1.50;;
65567;SDS011;52211;50.154;8.682;2023-12-29T06:04:34;2.07;;;1.30;;
65567;SDS011;52211;50.154;8.682;2023-12-29T06:07:06;1.50;;;1.40;;
65567;SDS011;52211;50.154;8.682;2023-12-29T06:09:36;1.50;;;1.40;;
65567;SDS011;52211;50.154;8.682;2023-12-29T06:12:06;2.10;;;1.90;;
65567;SDS011;52211;50.154;8.682;2023-12-29T06:14:37;1.63;;;1.40;;
65567;SDS011;52211;50.154;8.682;2023-12-29T06:17:09;1.87;;;1.40;;
65567;SDS011;52211;50.154;8.682;2023-12-29T09:33:21;1.80;;;1.50;;
65567;SDS011;52211;50.154;8.682;2023-12-29T09:35:49;2.07;;;1.40;;
65567;SDS011;52211;50.154;8.682;2023-12-29T09:38:21;2.50;;;1.60;;
65567;SDS011;52211;50.154;8.682;2023-12-29T09:40:48;2.10;;;1.57;;
65567;SDS011;52211;50.154;8.682;2023-12-29T09:43:23;2.37;;;1.00;;
65567;SDS011;52211;50.154;8.682;2023-12-29T09:45:56;1.50;;;1.40;;
65567;SDS011;52211;50.154;8.682;2023-12-29T10:25:35;2.60;;;1.20;;
65567;SDS011;52211;50.154;8.682;2023-12-29T10:28:02;2.93;;;1.60;;
65567;SDS011;52211;50.154;8.682;2023-12-29T10:49:06;1.37;;;1.27;;
65567;SDS011;52211;50.154;8.682;2023-12-29T10:51:42;1.40;;;1.10;;
65567;SDS011;52211;50.154;8.682;2023-12-29T10:54:18;1.93;;;0.97;;
65567;SDS011;52211;50.154;8.682;2023-12-29T10:57:02;3.27;;;1.30;;
65567;SDS011;52211;50.154;8.682;2023-12-29T10:59:30;1.17;;;1.07;;
65567;SDS011;52211;50.154;8.682;2023-12-29T11:01:57;1.20;;;1.10;;
65567;SDS011;52211;50.154;8.682;2023-12-29T11:04:37;1.70;;;1.10;;
65567;SDS011;52211;50.154;8.682;2023-12-29T11:07:11;1.70;;;1.33;;
65567;SDS011;52211;50.154;8.682;2023-12-29T11:09:42;1.50;;;1.20;;
65567;SDS011;52211;50.154;8.682;2023-12-29T11:12:10;2.53;;;1.10;;
65567;SDS011;52211;50.154;8.682;2023-12-29T11:14:40;2.83;;;1.60;;
65567;SDS011;52211;50.154;8.682;2023-12-29T11:17:14;3.00;;;1.40;;
65567;SDS011;52211;50.154;8.682;2023-12-29T11:19:48;1.13;;;1.03;;
65567;SDS011;52211;50.154;8.682;2023-12-29T11:22:19;2.10;;;1.20;;
65567;SDS011;52211;50.154;8.682;2023-12-29T11:57:10;1.80;;;0.97;;
65567;SDS011;52211;50.154;8.682;2023-12-29T11:59:59;1.43;;;0.97;;
65567;SDS011;52211;50.154;8.682;2023-12-29T12:02:39;1.20;;;1.10;;
65567;SDS011;52211;50.154;8.682;2023-12-29T12:05:20;2.27;;;1.23;;
65567;SDS011;52211;50.154;8.682;2023-12-29T12:08:28;3.50;;;1.00;;
65567;SDS011;52211;50.154;8.682;2023-12-29T12:14:00;6.67;;;1.33;;
65567;SDS011;52211;50.154;8.682;2023-12-29T12:16:47;1.80;;;0.97;;
65567;SDS011;52211;50.154;8.682;2023-12-29T12:19:19;2.50;;;1.20;;
65567;SDS011;52211;50.154;8.682;2023-12-29T12:21:47;3.13;;;1.30;;
65567;SDS011;52211;50.154;8.682;2023-12-29T12:24:20;5.70;;;1.33;;
65567;SDS011;52211;50.154;8.682;2023-12-29T12:26:49;1.40;;;1.10;;
65567;SDS011;52211;50.154;8.682;2023-12-29T12:29:18;1.83;;;1.00;;
65567;SDS011;52211;50.154;8.682;2023-12-29T12:31:53;1.40;;;1.13;;
65567;SDS011;52211;50.154;8.682;2023-12-29T12:34:26;1.27;;;1.10;;
65567;SDS011;52211;50.154;8.682;2023-12-29T12:37:09;1.20;;;1.10;;
65567;SDS011;52211;50.154;8.682;2023-12-29T12:39:40;1.60;;;1.40;;
65567;SDS011;52211;50.154;8.682;2023-12-29T12:42:12;2.50;;;1.00;;
65567;SDS011;52211;50.154;8.682;2023-12-29T12:44:45;1.87;;;1.30;;
65567;SDS011;52211;50.154;8.682;2023-12-29T12:47:44;1.13;;;1.00;;
65567;SDS011;52211;50.154;8.682;2023-12-29T12:50:23;1.67;;;1.00;;
65567;SDS011;52211;50.154;8.682;2023-12-29T12:52:52;1.37;;;1.00;;
65567;SDS011;52211;50.154;8.682;2023-12-29T12:55:22;1.20;;;0.97;;
65567;SDS011;52211;50.154;8.682;2023-12-29T12:57:53;1.00;;;1.00;;
65567;SDS011;52211;50.154;8.682;2023-12-29T13:00:23;1.53;;;1.00;;
65567;SDS011;52211;50.154;8.682;2023-12-29T13:02:51;1.00;;;0.87;;
65567;SDS011;52211;50.154;8.682;2023-12-29T13:05:20;0.90;;;0.90;;
65567;SDS011;52211;50.154;8.682;2023-12-29T13:07:48;1.10;;;1.00;;
65567;SDS011;52211;50.154;8.682;2023-12-29T13:10:19;1.20;;;0.83;;
65567;SDS011;52211;50.154;8.682;2023-12-29T13:12:52;3.00;;;1.10;;
65567;SDS011;52211;50.154;8.682;2023-12-29T13:15:23;1.10;;;1.00;;
65567;SDS011;52211;50.154;8.682;2023-12-29T13:17:55;1.10;;;1.00;;
65567;SDS011;52211;50.154;8.682;2023-12-29T13:20:22;2.87;;;0.90;;
65567;SDS011;52211;50.154;8.682;2023-12-29T13:22:50;2.13;;;1.10;;
65567;SDS011;52211;50.154;8.682;2023-12-29T13:25:18;1.00;;;0.83;;
65567;SDS011;52211;50.154;8.682;2023-12-29T13:27:47;0.90;;;0.80;;
65567;SDS011;52211;50.154;8.682;2023-12-29T13:30:16;0.90;;;0.90;;
65567;SDS011;52211;50.154;8.682;2023-12-29T13:32:48;0.97;;;0.80;;
65567;SDS011;52211;50.154;8.682;2023-12-29T13:35:24;0.80;;;0.77;;
65567;SDS011;52211;50.154;8.682;2023-12-29T13:38:16;0.97;;;0.83;;
65567;SDS011;52211;50.154;8.682;2023-12-29T13:40:59;0.70;;;0.70;;
65567;SDS011;52211;50.154;8.682;2023-12-29T13:43:36;0.83;;;0.80;;
65567;SDS011;52211;50.154;8.682;2023-12-29T13:46:09;0.77;;;0.63;;
65567;SDS011;52211;50.154;8.682;2023-12-29T13:48:44;0.83;;;0.70;;
65567;SDS011;52211;50.154;8.682;2023-12-29T13:51:17;0.70;;;0.70;;
65567;SDS011;52211;50.154;8.682;2023-12-29T13:54:01;0.87;;;0.87;;
65567;SDS011;52211;50.154;8.682;2023-12-29T13:56:29;0.83;;;0.80;;
65567;SDS011;52211;50.154;8.682;2023-12-29T13:58:58;0.70;;;0.70;;
65567;SDS011;52211;50.154;8.682;2023-12-29T14:01:37;0.87;;;0.80;;
65567;SDS011;52211;50.154;8.682;2023-12-29T14:04:06;1.00;;;0.70;;
65567;SDS011;52211;50.154;8.682;2023-12-29T14:06:50;0.90;;;0.80;;
65567;SDS011;52211;50.154;8.682;2023-12-29T14:09:27;0.60;;;0.60;;
65567;SDS011;52211;50.154;8.682;2023-12-29T14:11:59;0.97;;;0.70;;
65567;SDS011;52211;50.154;8.682;2023-12-29T14:14:29;0.83;;;0.77;;
65567;SDS011;52211;50.154;8.682;2023-12-29T14:16:57;0.70;;;0.70;;
65567;SDS011;52211;50.154;8.682;2023-12-29T14:19:35;0.60;;;0.60;;
65567;SDS011;52211;50.154;8.682;2023-12-29T14:22:05;1.00;;;0.90;;
65567;SDS011;52211;50.154;8.682;2023-12-29T14:24:34;0.87;;;0.87;;
65567;SDS011;52211;50.154;8.682;2023-12-29T14:27:01;0.67;;;0.67;;
65567;SDS011;52211;50.154;8.682;2023-12-29T14:29:29;3.77;;;1.20;;
65567;SDS011;52211;50.154;8.682;2023-12-29T14:32:14;1.93;;;1.13;;
65567;SDS011;52211;50.154;8.682;2023-12-29T14:34:41;0.70;;;0.70;;
65567;SDS011;52211;50.154;8.682;2023-12-29T14:37:09;0.80;;;0.80;;
65567;SDS011;52211;50.154;8.682;2023-12-29T14:39:41;1.10;;;0.80;;
65567;SDS011;52211;50.154;8.682;2023-12-29T14:42:22;0.60;;;0.60;;
65567;SDS011;52211;50.154;8.682;2023-12-29T14:44:49;0.70;;;0.70;;
65567;SDS011;52211;50.154;8.682;2023-12-29T14:47:18;1.20;;;0.80;;
65567;SDS011;52211;50.154;8.682;2023-12-29T14:49:53;0.70;;;0.70;;
65567;SDS011;52211;50.154;8.682;2023-12-29T14:52:27;0.80;;;0.80;;
65567;SDS011;52211;50.154;8.682;2023-12-29T14:54:55;0.97;;;0.83;;
65567;SDS011;52211;50.154;8.682;2023-12-29T14:57:26;0.90;;;0.90;;
65567;SDS011;52211;50.154;8.682;2023-12-29T14:59:56;2.77;;;0.80;;
65567;SDS011;52211;50.154;8.682;2023-12-29T15:02:22;0.70;;;0.70;;
65567;SDS011;52211;50.154;8.682;2023-12-29T15:04:52;0.80;;;0.80;;
65567;SDS011;52211;50.154;8.682;2023-12-29T15:07:26;0.80;;;0.80;;
65567;SDS011;52211;50.154;8.682;2023-12-29T15:09:59;1.83;;;0.93;;
65567;SDS011;52211;50.154;8.682;2023-12-29T15:12:28;1.63;;;0.90;;
65567;SDS011;52211;50.154;8.682;2023-12-29T15:14:59;0.87;;;0.70;;
65567;SDS011;52211;50.154;8.682;2023-12-29T15:17:29;1.50;;;1.07;;
65567;SDS011;52211;50.154;8.682;2023-12-29T15:20:00;2.53;;;1.17;;
65567;SDS011;52211;50.154;8.682;2023-12-29T15:22:27;1.43;;;0.90;;
65567;SDS011;52211;50.154;8.682;2023-12-29T15:24:54;1.00;;;0.77;;
65567;SDS011;52211;50.154;8.682;2023-12-29T15:27:24;1.00;;;0.90;;
65567;SDS011;52211;50.154;8.682;2023-12-29T15:29:53;1.80;;;0.90;;
65567;SDS011;52211;50.154;8.682;2023-12-29T15:32:20;1.70;;;1.00;;
65567;SDS011;52211;50.154;8.682;2023-12-29T15:34:49;0.90;;;0.80;;
65567;SDS011;52211;50.154;8.682;2023-12-29T15:37:16;1.10;;;1.00;;
65567;SDS011;52211;50.154;8.682;2023-12-29T15:39:47;1.37;;;0.80;;
65567;SDS011;52211;50.154;8.682;2023-12-29T15:42:20;0.67;;;0.67;;
65567;SDS011;52211;50.154;8.682;2023-12-29T15:44:51;2.47;;;1.23;;
65567;SDS011;52211;50.154;8.682;2023-12-29T15:47:21;0.90;;;0.90;;
65567;SDS011;52211;50.154;8.682;2023-12-29T15:49:48;2.33;;;1.37;;
65567;SDS011;52211;50.154;8.682;2023-12-29T15:52:15;1.10;;;1.00;;
65567;SDS011;52211;50.154;8.682;2023-12-29T15:54:44;1.30;;;1.20;;
65567;SDS011;52211;50.154;8.682;2023-12-29T15:57:14;1.07;;;0.80;;
65567;SDS011;52211;50.154;8.682;2023-12-29T15:59:41;2.33;;;0.77;;
65567;SDS011;52211;50.154;8.682;2023-12-29T16:02:13;1.73;;;0.90;;
65567;SDS011;52211;50.154;8.682;2023-12-29T16:04:40;1.13;;;0.70;;
65567;SDS011;52211;50.154;8.682;2023-12-29T16:07:09;1.67;;;1.03;;
65567;SDS011;52211;50.154;8.682;2023-12-29T16:09:45;1.20;;;1.10;;
65567;SDS011;52211;50.154;8.682;2023-12-29T16:12:12;3.07;;;1.10;;
65567;SDS011;52211;50.154;8.682;2023-12-29T16:14:44;0.93;;;0.90;;
65567;SDS011;52211;50.154;8.682;2023-12-29T16:17:11;1.40;;;0.90;;
65567;SDS011;52211;50.154;8.682;2023-12-29T16:19:38;3.10;;;0.93;;
65567;SDS011;52211;50.154;8.682;2023-12-29T16:22:07;1.23;;;1.13;;
65567;SDS011;52211;50.154;8.682;2023-12-29T16:24:39;1.30;;;1.20;;
65567;SDS011;52211;50.154;8.682;2023-12-29T16:27:08;1.20;;;1.10;;
65567;SDS011;52211;50.154;8.682;2023-12-29T16:29:35;1.27;;;0.80;;
65567;SDS011;52211;50.154;8.682;2023-12-29T16:32:02;0.83;;;0.73;;
65567;SDS011;52211;50.154;8.682;2023-12-29T16:34:29;1.07;;;0.90;;
65567;SDS011;52211;50.154;8.682;2023-12-29T16:36:57;4.17;;;1.30;;
65567;SDS011;52211;50.154;8.682;2023-12-29T16:39:29;3.03;;;1.10;;
65567;SDS011;52211;50.154;8.682;2023-12-29T16:41:58;2.90;;;1.20;;
65567;SDS011;52211;50.154;8.682;2023-12-29T16:44:25;2.77;;;1.03;;
65567;SDS011;52211;50.154;8.682;2023-12-29T16:46:55;1.00;;;0.90;;
65567;SDS011;52211;50.154;8.682;2023-12-29T16:49:21;0.90;;;0.90;;
65567;SDS011;52211;50.154;8.682;2023-12-29T16:51:51;2.50;;;1.00;;
65567;SDS011;52211;50.154;8.682;2023-12-29T16:54:22;0.90;;;0.90;;
65567;SDS011;52211;50.154;8.682;2023-12-29T16:56:54;1.73;;;1.13;;
65567;SDS011;52211;50.154;8.682;2023-12-29T16:59:23;1.40;;;1.27;;
65567;SDS011;52211;50.154;8.682;2023-12-29T17:01:52;2.07;;;1.00;;
65567;SDS011;52211;50.154;8.682;2023-12-29T17:04:30;2.50;;;1.13;;
65567;SDS011;52211;50.154;8.682;2023-12-29T17:07:00;1.27;;;0.90;;
65567;SDS011;52211;50.154;8.682;2023-12-29T17:09:29;2.03;;;1.00;;
65567;SDS011;52211;50.154;8.682;2023-12-29T17:11:56;1.47;;;0.87;;
65567;SDS011;52211;50.154;8.682;2023-12-29T17:14:28;1.83;;;1.00;;
65567;SDS011;52211;50.154;8.682;2023-12-29T17:16:59;1.50;;;1.07;;
65567;SDS011;52211;50.154;8.682;2023-12-29T17:19:28;1.47;;;1.10;;
65567;SDS011;52211;50.154;8.682;2023-12-29T17:22:00;1.43;;;1.03;;
65567;SDS011;52211;50.154;8.682;2023-12-29T17:24:34;1.20;;;1.07;;
65567;SDS011;52211;50.154;8.682;2023-12-29T17:27:07;1.97;;;1.73;;
65567;SDS011;52211;50.154;8.682;2023-12-29T17:29:36;0.80;;;0.80;;
65567;SDS011;52211;50.154;8.682;2023-12-29T17:32:05;1.20;;;0.90;;
65567;SDS011;52211;50.154;8.682;2023-12-29T17:34:35;1.93;;;1.07;;
65567;SDS011;52211;50.154;8.682;2023-12-29T17:37:04;2.10;;;0.90;;
65567;SDS011;52211;50.154;8.682;2023-12-29T17:39:31;3.73;;;1.17;;
65567;SDS011;52211;50.154;8.682;2023-12-29T17:42:01;1.40;;;1.00;;
65567;SDS011;52211;50.154;8.682;2023-12-29T17:44:40;1.10;;;0.90;;
65567;SDS011;52211;50.154;8.682;2023-12-29T17:47:09;2.13;;;1.40;;
65567;SDS011;52211;50.154;8.682;2023-12-29T17:49:36;2.43;;;1.30;;
65567;SDS011;52211;50.154;8.682;2023-12-29T17:52:08;2.83;;;1.20;;
65567;SDS011;52211;50.154;8.682;2023-12-29T17:54:37;2.13;;;1.00;;
65567;SDS011;52211;50.154;8.682;2023-12-29T17:57:07;3.83;;;1.30;;
65567;SDS011;52211;50.154;8.682;2023-12-29T17:59:36;1.30;;;0.90;;
65567;SDS011;52211;50.154;8.682;2023-12-29T18:02:03;1.10;;;0.90;;
65567;SDS011;52211;50.154;8.682;2023-12-29T18:04:30;1.00;;;0.90;;
65567;SDS011;52211;50.154;8.682;2023-12-29T18:06:57;1.63;;;1.13;;
65567;SDS011;52211;50.154;8.682;2023-12-29T18:09:32;3.63;;;0.90;;
65567;SDS011;52211;50.154;8.682;2023-12-29T18:12:06;0.80;;;0.80;;
65567;SDS011;52211;50.154;8.682;2023-12-29T18:14:37;1.10;;;1.10;;
65567;SDS011;52211;50.154;8.682;2023-12-29T18:17:05;1.10;;;0.83;;
65567;SDS011;52211;50.154;8.682;2023-12-29T18:19:40;1.70;;;1.10;;
65567;SDS011;52211;50.154;8.682;2023-12-29T18:22:10;1.03;;;1.03;;
65567;SDS011;52211;50.154;8.682;2023-12-29T18:24:43;3.87;;;2.37;;
65567;SDS011;52211;50.154;8.682;2023-12-29T18:27:13;1.07;;;1.00;;
65567;SDS011;52211;50.154;8.682;2023-12-29T18:29:45;1.53;;;0.80;;
65567;SDS011;52211;50.154;8.682;2023-12-29T18:32:17;3.70;;;1.10;;
65567;SDS011;52211;50.154;8.682;2023-12-29T18:34:51;2.80;;;1.50;;
65567;SDS011;52211;50.154;8.682;2023-12-29T18:37:20;1.20;;;1.00;;
65567;SDS011;52211;50.154;8.682;2023-12-29T18:39:50;2.57;;;1.57;;
65567;SDS011;52211;50.154;8.682;2023-12-29T18:42:21;1.30;;;1.20;;
65567;SDS011;52211;50.154;8.682;2023-12-29T18:44:48;1.13;;;1.07;;
65567;SDS011;52211;50.154;8.682;2023-12-29T18:47:15;2.10;;;1.27;;
65567;SDS011;52211;50.154;8.682;2023-12-29T18:49:42;2.37;;;1.10;;
65567;SDS011;52211;50.154;8.682;2023-12-29T18:52:12;1.93;;;1.20;;
65567;SDS011;52211;50.154;8.682;2023-12-29T18:54:42;2.20;;;1.07;;
65567;SDS011;52211;50.154;8.682;2023-12-29T18:57:17;1.43;;;1.00;;
65567;SDS011;52211;50.154;8.682;2023-12-29T18:59:45;0.90;;;0.90;;
65567;SDS011;52211;50.154;8.682;2023-12-29T19:02:14;1.33;;;1.10;;
65567;SDS011;52211;50.154;8.682;2023-12-29T19:04:44;2.33;;;1.00;;
65567;SDS011;52211;50.154;8.682;2023-12-29T19:07:14;2.10;;;1.20;;
65567;SDS011;52211;50.154;8.682;2023-12-29T19:09:49;2.50;;;1.10;;
65567;SDS011;52211;50.154;8.682;2023-12-29T19:12:16;1.83;;;1.00;;
65567;SDS011;52211;50.154;8.682;2023-12-29T19:14:45;1.67;;;1.17;;
65567;SDS011;52211;50.154;8.682;2023-12-29T19:17:18;2.53;;;1.60;;
65567;SDS011;52211;50.154;8.682;2023-12-29T19:19:50;1.40;;;1.30;;
65567;SDS011;52211;50.154;8.682;2023-12-29T19:22:21;1.30;;;1.20;;
65567;SDS011;52211;50.154;8.682;2023-12-29T19:24:50;1.97;;;1.17;;
